createdAt,value
2023-02-11T00:01:51.106Z,25.03
2023-02-11T00:04:19.524Z,20.23
2023-02-11T00:06:47.889Z,22.60
2023-02-11T00:09:16.385Z,22.03
2023-02-11T00:11:46.101Z,21.40
2023-02-11T00:14:14.507Z,25.17
2023-02-11T00:16:43.274Z,19.70
2023-02-11T00:19:11.756Z,18.03
2023-02-11T00:21:41.498Z,22.03
2023-02-11T00:24:10.324Z,20.37
2023-02-11T00:26:38.591Z,16.90
2023-02-11T00:29:08.281Z,20.20
2023-02-11T00:31:36.776Z,18.90
2023-02-11T00:34:06.978Z,18.00
2023-02-11T00:36:35.647Z,22.33
2023-02-11T00:39:04.247Z,17.47
2023-02-11T00:41:32.937Z,18.43
2023-02-11T00:44:01.613Z,19.70
2023-02-11T00:46:31.863Z,17.83
2023-02-11T00:49:00.597Z,18.47
2023-02-11T00:51:29.740Z,15.50
2023-02-11T00:53:58.124Z,16.17
2023-02-11T00:56:26.886Z,15.73
2023-02-11T00:58:57.531Z,15.20
2023-02-11T01:01:26.122Z,20.50
2023-02-11T01:03:56.065Z,23.77
2023-02-11T01:06:24.922Z,15.43
2023-02-11T01:08:53.462Z,15.87
2023-02-11T01:11:23.348Z,18.30
2023-02-11T01:13:52.330Z,17.27
2023-02-11T01:16:22.549Z,16.73
2023-02-11T01:18:50.913Z,18.40
2023-02-11T01:21:21.270Z,17.13
2023-02-11T01:23:51.271Z,19.63
2023-02-11T01:26:20.141Z,18.70
2023-02-11T01:28:48.658Z,16.83
2023-02-11T01:31:16.985Z,16.60
2023-02-11T01:33:45.388Z,21.27
2023-02-11T01:36:14.403Z,20.07
2023-02-11T01:38:44.784Z,24.87
2023-02-11T01:41:15.609Z,19.70
2023-02-11T01:43:46.787Z,17.93
2023-02-11T01:46:36.534Z,18.90
2023-02-11T01:49:08.680Z,19.60
2023-02-11T01:51:41.539Z,16.47
2023-02-11T01:54:32.956Z,23.97
2023-02-11T01:57:21.684Z,17.20
2023-02-11T01:59:57.461Z,16.53
2023-02-11T02:02:34.803Z,16.70
2023-02-11T02:05:09.390Z,17.90
2023-02-11T02:07:42.549Z,23.90
2023-02-11T02:10:16.459Z,16.73
2023-02-11T02:12:45.146Z,16.70
2023-02-11T02:15:31.770Z,17.57
2023-02-11T02:18:11.808Z,14.33
2023-02-11T02:21:36.624Z,14.80
2023-02-11T02:24:40.628Z,14.67
2023-02-11T02:27:27.243Z,19.30
2023-02-11T02:30:15.109Z,20.50
2023-02-11T02:33:21.434Z,17.70
2023-02-11T02:35:59.602Z,14.30
2023-02-11T02:38:32.617Z,18.77
2023-02-11T02:41:05.178Z,22.57
2023-02-11T02:43:34.958Z,19.23
2023-02-11T02:46:14.741Z,20.40
2023-02-11T02:48:45.077Z,16.23
2023-02-11T02:51:34.448Z,13.70
2023-02-11T02:54:20.918Z,14.70
2023-02-11T02:56:55.755Z,16.40
2023-02-11T02:59:35.210Z,17.07
2023-02-11T03:02:13.209Z,15.63
2023-02-11T03:04:51.060Z,15.77
2023-02-11T03:07:26.696Z,16.33
2023-02-11T03:10:03.192Z,20.07
2023-02-11T03:12:34.243Z,14.10
2023-02-11T03:15:04.235Z,16.53
2023-02-11T03:17:35.055Z,16.20
2023-02-11T03:20:07.469Z,15.10
2023-02-11T03:22:41.683Z,19.30
2023-02-11T03:25:10.914Z,16.57
2023-02-11T03:27:47.731Z,19.27
2023-02-11T03:30:20.183Z,16.63
2023-02-11T03:32:52.523Z,13.33
2023-02-11T03:35:27.969Z,15.00
2023-02-11T03:38:00.862Z,15.73
2023-02-11T03:40:33.746Z,14.60
2023-02-11T03:43:07.958Z,14.20
2023-02-11T03:45:38.523Z,13.23
2023-02-11T03:48:12.888Z,14.77
2023-02-11T03:50:45.777Z,13.53
2023-02-11T03:53:22.266Z,15.13
2023-02-11T03:55:56.196Z,16.70
2023-02-11T03:58:24.609Z,17.43
2023-02-11T04:00:52.905Z,15.90
2023-02-11T04:03:21.521Z,15.50
2023-02-11T04:05:51.538Z,15.23
2023-02-11T04:08:20.198Z,19.13
2023-02-11T04:10:48.792Z,13.77
2023-02-11T04:13:17.151Z,15.13
2023-02-11T04:15:48.509Z,17.90
2023-02-11T04:18:17.152Z,26.30
2023-02-11T04:20:45.370Z,31.40
2023-02-11T04:23:15.160Z,27.17
2023-02-11T04:25:44.002Z,60.40
2023-02-11T04:28:12.444Z,41.73
2023-02-11T04:30:40.848Z,23.40
2023-02-11T04:33:09.174Z,24.47
2023-02-11T04:35:37.628Z,15.87
2023-02-11T04:38:05.892Z,23.53
2023-02-11T04:40:35.764Z,26.73
2023-02-11T04:43:04.148Z,20.63
2023-02-11T04:45:32.556Z,17.40
2023-02-11T04:48:01.245Z,18.47
2023-02-11T04:50:30.377Z,17.70
2023-02-11T04:52:59.483Z,13.47
2023-02-11T04:55:28.497Z,18.13
2023-02-11T04:57:59.956Z,15.03
2023-02-11T05:00:28.772Z,13.03
2023-02-11T05:03:00.887Z,14.40
2023-02-11T05:05:34.253Z,24.50
2023-02-11T05:08:03.763Z,32.30
2023-02-11T05:10:35.787Z,56.70
2023-02-11T05:14:23.816Z,33.17
2023-02-11T05:18:10.805Z,22.77
2023-02-11T05:25:13.595Z,20.07
2023-02-11T05:29:26.742Z,16.80
2023-02-11T05:32:12.295Z,16.37
2023-02-11T05:34:43.263Z,16.97
2023-02-11T05:37:13.145Z,16.33
2023-02-11T05:39:42.114Z,13.67
2023-02-11T05:42:12.798Z,16.60
2023-02-11T05:44:44.636Z,14.67
2023-02-11T05:47:14.906Z,14.93
2023-02-11T05:49:47.541Z,17.60
2023-02-11T05:52:16.496Z,19.27
2023-02-11T05:54:48.802Z,19.33
2023-02-11T05:57:22.212Z,16.30
2023-02-11T05:59:52.714Z,17.87
2023-02-11T06:02:26.746Z,16.93
2023-02-11T06:04:59.519Z,23.33
2023-02-11T06:07:34.900Z,22.87
2023-02-11T06:10:06.932Z,14.13
2023-02-11T06:12:35.730Z,23.33
2023-02-11T06:15:12.523Z,18.53
2023-02-11T06:17:45.679Z,19.00
2023-02-11T06:20:16.448Z,20.00
2023-02-11T06:22:50.426Z,22.10
2023-02-11T06:25:22.278Z,22.53
2023-02-11T06:27:51.410Z,20.70
2023-02-11T06:30:27.057Z,29.67
2023-02-11T06:32:59.089Z,38.50
2023-02-11T06:35:28.524Z,34.90
2023-02-11T06:37:59.693Z,28.00
2023-02-11T06:40:29.122Z,21.10
2023-02-11T06:43:03.355Z,24.47
2023-02-11T06:45:33.356Z,23.13
2023-02-11T06:48:03.226Z,19.23
2023-02-11T06:50:31.600Z,24.73
2023-02-11T06:53:00.683Z,19.27
2023-02-11T06:55:29.401Z,23.83
2023-02-11T06:57:58.012Z,23.43
2023-02-11T07:00:26.936Z,21.93
2023-02-11T07:02:55.659Z,18.53
2023-02-11T07:05:25.830Z,19.07
2023-02-11T07:07:54.232Z,22.53
2023-02-11T07:10:22.694Z,21.70
2023-02-11T07:12:51.082Z,25.67
2023-02-11T07:15:19.752Z,22.93
2023-02-11T07:17:48.140Z,26.67
2023-02-11T07:20:16.703Z,49.00
2023-02-11T07:22:46.382Z,39.43
2023-02-11T07:25:14.832Z,28.10
2023-02-11T07:27:43.263Z,27.10
2023-02-11T07:30:13.353Z,21.43
2023-02-11T07:32:41.759Z,23.80
2023-02-11T07:35:10.097Z,21.10
2023-02-11T07:37:38.517Z,21.50
2023-02-11T07:40:09.410Z,25.53
2023-02-11T07:42:37.871Z,23.70
2023-02-11T07:45:06.973Z,32.80
2023-02-11T07:47:35.978Z,45.53
2023-02-11T07:50:04.493Z,57.33
2023-02-11T07:52:33.062Z,37.87
2023-02-11T07:55:03.779Z,31.30
2023-02-11T07:57:34.497Z,28.50
2023-02-11T08:00:03.064Z,25.70
2023-02-11T08:02:39.071Z,21.43
2023-02-11T08:05:08.133Z,21.20
2023-02-11T08:07:36.600Z,26.07
2023-02-11T08:10:05.310Z,28.73
2023-02-11T08:12:35.022Z,28.40
2023-02-11T08:15:03.444Z,26.30
2023-02-11T08:17:31.893Z,19.57
2023-02-11T08:20:00.263Z,22.03
2023-02-11T08:22:28.960Z,23.30
2023-02-11T08:24:58.438Z,31.03
2023-02-11T08:27:27.571Z,29.43
2023-02-11T08:29:59.530Z,22.63
2023-02-11T08:32:28.097Z,32.47
2023-02-11T08:34:56.959Z,41.10
2023-02-11T08:37:25.350Z,37.40
2023-02-11T08:39:54.050Z,28.63
2023-02-11T08:42:22.627Z,29.37
2023-02-11T08:44:51.039Z,28.30
2023-02-11T08:47:20.757Z,30.37
2023-02-11T08:49:49.114Z,36.70
2023-02-11T08:52:17.517Z,29.83
2023-02-11T08:54:46.136Z,29.47
2023-02-11T08:57:14.556Z,39.23
2023-02-11T08:59:42.945Z,28.07
2023-02-11T09:02:13.770Z,28.83
2023-02-11T09:04:43.573Z,25.17
2023-02-11T09:07:12.787Z,29.50
2023-02-11T09:09:41.176Z,27.93
2023-02-11T09:12:09.608Z,32.57
2023-02-11T09:14:38.405Z,27.40
2023-02-11T09:17:06.766Z,32.40
2023-02-11T09:19:35.035Z,29.13
2023-02-11T09:22:04.823Z,28.30
2023-02-11T09:24:33.614Z,30.77
2023-02-11T09:27:02.024Z,39.03
2023-02-11T09:29:30.694Z,30.90
2023-02-11T09:31:59.494Z,26.40
2023-02-11T09:34:28.632Z,25.73
2023-02-11T09:36:56.996Z,32.07
2023-02-11T09:39:27.595Z,26.47
2023-02-11T09:42:26.361Z,29.53
2023-02-11T09:44:54.866Z,30.13
2023-02-11T09:47:29.509Z,25.93
2023-02-11T09:50:02.713Z,27.97
2023-02-11T09:52:41.287Z,35.30
2023-02-11T09:55:19.839Z,32.33
2023-02-11T09:57:48.640Z,23.90
2023-02-11T10:00:20.785Z,25.17
2023-02-11T10:03:05.021Z,33.37
2023-02-11T10:05:45.720Z,35.23
2023-02-11T10:08:21.300Z,33.63
2023-02-11T10:10:54.973Z,33.83
2023-02-11T10:13:36.943Z,29.20
2023-02-11T10:16:17.374Z,26.87
2023-02-11T10:19:00.429Z,32.70
2023-02-11T10:21:41.372Z,33.77
2023-02-11T10:24:13.869Z,24.70
2023-02-11T10:26:45.446Z,31.97
2023-02-11T10:29:27.268Z,31.77
2023-02-11T10:31:58.222Z,30.60
2023-02-11T10:34:26.901Z,29.57
2023-02-11T10:36:55.375Z,33.73
2023-02-11T10:39:25.042Z,32.33
2023-02-11T10:41:58.647Z,37.07
2023-02-11T10:44:32.372Z,26.93
2023-02-11T10:47:05.298Z,33.60
2023-02-11T10:49:40.430Z,29.50
2023-02-11T10:52:20.681Z,26.37
2023-02-11T10:55:16.613Z,26.50
2023-02-11T10:57:54.440Z,25.90
2023-02-11T11:00:36.839Z,29.93
2023-02-11T11:03:16.875Z,26.43
2023-02-11T11:05:51.012Z,35.70
2023-02-11T11:08:20.630Z,31.60
2023-02-11T11:10:50.577Z,31.63
2023-02-11T11:13:32.963Z,28.93
2023-02-11T11:16:25.996Z,30.63
2023-02-11T11:19:15.524Z,36.90
2023-02-11T11:21:49.251Z,27.10
2023-02-11T11:24:21.620Z,30.17
2023-02-11T11:26:52.278Z,39.37
2023-02-11T11:29:28.885Z,44.50
2023-02-11T11:31:59.611Z,33.50
2023-02-11T11:34:31.088Z,34.00
2023-02-11T11:37:01.478Z,36.93
2023-02-11T11:39:32.780Z,35.60
2023-02-11T11:42:04.423Z,30.90
2023-02-11T11:44:36.271Z,24.20
2023-02-11T11:47:28.295Z,36.70
2023-02-11T11:50:21.441Z,32.93
2023-02-11T11:52:55.448Z,30.47
2023-02-11T11:55:28.519Z,34.13
2023-02-11T11:57:57.031Z,32.33
2023-02-11T12:00:33.487Z,30.63
2023-02-11T12:03:33.002Z,28.20
2023-02-11T12:06:23.727Z,28.93
2023-02-11T12:09:03.143Z,29.00
2023-02-11T12:11:41.563Z,31.70
2023-02-11T12:14:20.656Z,29.70
2023-02-11T12:17:01.701Z,26.50
2023-02-11T12:20:14.281Z,30.00
2023-02-11T12:22:51.491Z,26.73
2023-02-11T12:25:28.727Z,33.50
2023-02-11T12:28:12.407Z,33.27
2023-02-11T12:30:54.246Z,83.07
2023-02-11T12:33:53.108Z,62.17
2023-02-11T12:36:35.870Z,37.00
2023-02-11T12:39:14.447Z,35.50
2023-02-11T12:42:28.378Z,35.10
2023-02-11T12:45:12.479Z,27.77
2023-02-11T12:47:50.543Z,31.47
2023-02-11T12:50:30.115Z,31.47
2023-02-11T12:53:17.888Z,28.13
2023-02-11T12:55:49.991Z,35.30
2023-02-11T12:58:29.675Z,35.57
2023-02-11T13:01:08.231Z,38.00
2023-02-11T13:03:41.305Z,33.43
2023-02-11T13:06:15.696Z,33.20
2023-02-11T13:08:47.213Z,27.10
2023-02-11T13:11:19.927Z,35.70
2023-02-11T13:13:53.811Z,32.50
2023-02-11T13:16:34.623Z,29.83
2023-02-11T13:19:09.067Z,36.30
2023-02-11T13:21:55.719Z,32.20
2023-02-11T13:24:30.513Z,31.20
2023-02-11T13:27:10.701Z,31.40
2023-02-11T13:30:04.365Z,34.37
2023-02-11T13:33:08.548Z,36.17
2023-02-11T13:35:38.632Z,32.23
2023-02-11T13:38:21.103Z,29.13
2023-02-11T13:41:02.436Z,40.57
2023-02-11T13:43:32.779Z,32.57
2023-02-11T13:46:03.032Z,39.73
2023-02-11T13:48:34.046Z,36.30
2023-02-11T13:51:05.287Z,34.80
2023-02-11T13:53:47.721Z,36.93
2023-02-11T13:56:29.956Z,33.17
2023-02-11T13:59:01.896Z,33.30
2023-02-11T14:02:13.176Z,37.03
2023-02-11T14:05:21.488Z,37.53
2023-02-11T14:08:39.959Z,33.40
2023-02-11T14:11:27.558Z,29.13
2023-02-11T14:14:24.028Z,31.30
2023-02-11T14:17:22.477Z,33.43
2023-02-11T14:19:51.518Z,36.60
2023-02-11T14:22:26.010Z,42.13
2023-02-11T14:24:57.497Z,35.07
2023-02-11T14:27:32.493Z,35.10
2023-02-11T14:30:17.757Z,35.90
2023-02-11T14:33:06.574Z,28.17
2023-02-11T14:35:42.379Z,32.90
2023-02-11T14:38:21.501Z,38.83
2023-02-11T14:40:57.121Z,37.67
2023-02-11T14:43:31.500Z,34.90
2023-02-11T14:46:01.118Z,30.93
2023-02-11T14:48:32.615Z,31.47
2023-02-11T14:51:04.450Z,34.00
2023-02-11T14:53:34.568Z,34.10
2023-02-11T14:56:02.939Z,29.03
2023-02-11T14:58:34.448Z,31.97
2023-02-11T15:01:09.353Z,36.43
2023-02-11T15:03:39.953Z,32.43
2023-02-11T15:06:17.167Z,36.93
2023-02-11T15:08:50.266Z,31.23
2023-02-11T15:11:21.741Z,33.33
2023-02-11T15:13:55.070Z,29.07
2023-02-11T15:16:26.332Z,32.10
2023-02-11T15:18:57.132Z,30.27
2023-02-11T15:21:27.498Z,32.50
2023-02-11T15:24:01.933Z,28.03
2023-02-11T15:26:31.203Z,28.20
2023-02-11T15:29:01.625Z,28.93
2023-02-11T15:31:32.471Z,32.30
2023-02-11T15:34:09.420Z,30.30
2023-02-11T15:36:39.781Z,31.50
2023-02-11T15:39:19.162Z,35.20
2023-02-11T15:41:47.989Z,31.40
2023-02-11T15:44:32.620Z,40.00
2023-02-11T15:47:01.622Z,31.80
2023-02-11T15:49:29.990Z,34.93
2023-02-11T15:51:59.163Z,34.07
2023-02-11T15:54:29.599Z,33.90
2023-02-11T15:57:03.861Z,35.53
2023-02-11T15:59:38.238Z,28.27
2023-02-11T16:02:16.946Z,36.03
2023-02-11T16:04:51.985Z,34.47
2023-02-11T16:07:45.603Z,32.47
2023-02-11T16:10:28.836Z,31.07
2023-02-11T16:13:04.232Z,30.70
2023-02-11T16:15:44.801Z,75.50
2023-02-11T16:18:37.415Z,73.30
2023-02-11T16:21:08.988Z,58.07
2023-02-11T16:23:39.540Z,46.33
2023-02-11T16:26:13.597Z,34.70
2023-02-11T16:28:42.446Z,34.50
2023-02-11T16:31:12.594Z,31.07
2023-02-11T16:33:41.028Z,31.10
2023-02-11T16:36:14.853Z,30.50
2023-02-11T16:38:43.183Z,33.33
2023-02-11T16:41:12.809Z,32.10
2023-02-11T16:43:41.390Z,32.30
2023-02-11T16:46:12.919Z,31.97
2023-02-11T16:48:41.377Z,31.40
2023-02-11T16:51:12.920Z,32.27
2023-02-11T16:53:41.477Z,34.33
2023-02-11T16:56:15.628Z,37.10
2023-02-11T16:58:44.110Z,35.27
2023-02-11T17:01:14.741Z,33.13
2023-02-11T17:03:43.789Z,32.47
2023-02-11T17:06:13.604Z,27.47
2023-02-11T17:08:42.657Z,30.47
2023-02-11T17:11:11.181Z,29.40
2023-02-11T17:13:41.655Z,29.50
2023-02-11T17:16:17.502Z,34.63
2023-02-11T17:18:46.078Z,34.70
2023-02-11T17:21:14.614Z,39.17
2023-02-11T17:23:43.190Z,30.87
2023-02-11T17:26:11.784Z,37.13
2023-02-11T17:28:40.425Z,34.03
2023-02-11T17:31:09.854Z,34.03
2023-02-11T17:33:39.686Z,40.07
2023-02-11T17:36:09.263Z,31.30
2023-02-11T17:38:38.750Z,33.17
2023-02-11T17:41:07.403Z,41.10
2023-02-11T17:43:35.884Z,30.40
2023-02-11T17:46:08.414Z,34.83
2023-02-11T17:48:39.838Z,35.77
2023-02-11T17:51:23.218Z,32.80
2023-02-11T17:53:52.319Z,35.13
2023-02-11T17:56:21.199Z,35.57
2023-02-11T17:58:49.803Z,36.80
2023-02-11T18:01:18.347Z,39.40
2023-02-11T18:03:48.304Z,47.10
2023-02-11T18:06:16.691Z,95.67
2023-02-11T18:08:45.195Z,61.80
2023-02-11T18:11:15.167Z,48.10
2023-02-11T18:13:43.887Z,52.13
2023-02-11T18:16:15.939Z,44.50
2023-02-11T18:18:45.077Z,38.10
2023-02-11T18:21:17.209Z,41.17
2023-02-11T18:23:47.492Z,41.77
2023-02-11T18:26:18.385Z,37.90
2023-02-11T18:28:47.133Z,42.00
2023-02-11T18:31:16.416Z,42.43
2023-02-11T18:33:45.305Z,39.40
2023-02-11T18:36:16.312Z,40.90
2023-02-11T18:38:45.319Z,40.20
2023-02-11T18:41:14.961Z,41.93
2023-02-11T18:43:43.674Z,43.13
2023-02-11T18:46:15.090Z,41.10
2023-02-11T18:48:44.835Z,41.10
2023-02-11T18:51:18.398Z,40.50
2023-02-11T18:53:47.231Z,48.80
2023-02-11T18:56:17.143Z,45.03
2023-02-11T18:58:45.857Z,37.07
2023-02-11T19:01:16.349Z,39.57
2023-02-11T19:03:45.511Z,46.57
2023-02-11T19:06:20.874Z,88.80
2023-02-11T19:08:49.321Z,78.13
2023-02-11T19:11:19.817Z,63.47
2023-02-11T19:13:48.859Z,56.67
2023-02-11T19:16:19.842Z,44.77
2023-02-11T19:18:48.784Z,48.63
2023-02-11T19:21:20.626Z,47.97
2023-02-11T19:23:49.115Z,49.07
2023-02-11T19:26:17.468Z,41.17
2023-02-11T19:28:45.831Z,43.33
2023-02-11T19:31:14.958Z,47.53
2023-02-11T19:33:43.410Z,40.37
2023-02-11T19:36:16.332Z,42.73
2023-02-11T19:38:46.350Z,47.43
2023-02-11T19:41:16.310Z,41.00
2023-02-11T19:43:46.189Z,48.20
2023-02-11T19:46:14.649Z,45.27
2023-02-11T19:48:43.240Z,43.73
2023-02-11T19:51:13.356Z,41.33
2023-02-11T19:53:42.089Z,41.13
2023-02-11T19:56:13.356Z,43.70
2023-02-11T19:58:42.585Z,42.00
2023-02-11T20:01:13.784Z,37.97
2023-02-11T20:03:43.134Z,40.33
2023-02-11T20:06:14.805Z,39.40
2023-02-11T20:08:43.280Z,41.10
2023-02-11T20:11:14.460Z,44.53
2023-02-11T20:13:43.427Z,41.70
2023-02-11T20:16:14.508Z,40.37
2023-02-11T20:18:43.484Z,44.40
2023-02-11T20:21:14.078Z,40.37
2023-02-11T20:23:42.874Z,42.00
2023-02-11T20:26:15.566Z,38.20
2023-02-11T20:28:44.937Z,37.17
2023-02-11T20:31:13.546Z,41.10
2023-02-11T20:33:44.132Z,42.87
2023-02-11T20:36:18.446Z,42.30
2023-02-11T20:38:49.662Z,46.50
2023-02-11T20:41:22.666Z,42.90
2023-02-11T20:43:54.509Z,41.37
2023-02-11T20:46:26.533Z,45.43
2023-02-11T20:48:57.420Z,40.90
2023-02-11T20:51:31.228Z,42.23
2023-02-11T20:54:04.360Z,45.43
2023-02-11T20:56:36.724Z,41.60
2023-02-11T20:59:10.349Z,42.37
2023-02-11T21:01:42.898Z,39.40
2023-02-11T21:04:19.350Z,42.50
2023-02-11T21:06:54.187Z,41.20
2023-02-11T21:09:25.379Z,46.93
2023-02-11T21:11:56.425Z,42.60
2023-02-11T21:14:29.883Z,50.60
2023-02-11T21:16:58.872Z,43.93
2023-02-11T21:19:28.459Z,41.23
2023-02-11T21:22:00.733Z,44.60
2023-02-11T21:24:31.028Z,46.00
2023-02-11T21:27:13.592Z,42.10
2023-02-11T21:29:53.366Z,40.37
2023-02-11T21:32:26.680Z,40.00
2023-02-11T21:34:55.919Z,34.20
2023-02-11T21:37:26.382Z,39.23
2023-02-11T21:39:55.639Z,44.03
2023-02-11T21:42:28.279Z,42.50
2023-02-11T21:44:56.767Z,40.00
2023-02-11T21:47:26.086Z,41.00
2023-02-11T21:49:54.874Z,39.93
2023-02-11T21:52:23.186Z,43.83
2023-02-11T21:54:51.989Z,44.80
2023-02-11T21:57:20.427Z,41.67
2023-02-11T21:59:50.225Z,43.10
2023-02-11T22:02:18.726Z,39.77
2023-02-11T22:04:47.389Z,39.60
2023-02-11T22:07:15.890Z,41.23
2023-02-11T22:09:44.215Z,41.00
2023-02-11T22:12:12.544Z,45.80
2023-02-11T22:14:40.904Z,41.50
2023-02-11T22:17:10.652Z,38.20
2023-02-11T22:19:39.356Z,42.00
2023-02-11T22:22:09.357Z,41.87
2023-02-11T22:24:37.756Z,38.27
2023-02-11T22:27:06.034Z,37.60
2023-02-11T22:29:34.399Z,42.60
2023-02-11T22:32:03.020Z,38.40
2023-02-11T22:34:32.895Z,38.57
2023-02-11T22:37:02.368Z,46.20
2023-02-11T22:39:31.096Z,43.83
2023-02-11T22:41:59.832Z,44.37
2023-02-11T22:44:28.445Z,43.53
2023-02-11T22:46:56.830Z,41.70
2023-02-11T22:49:25.325Z,44.23
2023-02-11T22:51:54.923Z,43.20
2023-02-11T22:54:23.366Z,41.60
2023-02-11T22:56:52.429Z,39.73
2023-02-11T22:59:21.517Z,42.10
2023-02-11T23:01:49.965Z,42.43
2023-02-11T23:04:19.313Z,37.77
2023-02-11T23:06:49.431Z,43.10
2023-02-11T23:09:19.231Z,46.20
2023-02-11T23:11:49.389Z,40.27
2023-02-11T23:14:17.880Z,41.23
2023-02-11T23:16:46.287Z,48.50
2023-02-11T23:19:14.826Z,42.63
2023-02-11T23:21:43.140Z,42.80
2023-02-11T23:24:14.455Z,44.83
2023-02-11T23:26:45.350Z,45.57
2023-02-11T23:29:14.506Z,39.23
2023-02-11T23:31:46.069Z,41.70
2023-02-11T23:34:17.164Z,41.10
2023-02-11T23:36:45.849Z,40.00
2023-02-11T23:39:15.829Z,41.63
2023-02-11T23:41:45.910Z,38.57
2023-02-11T23:44:14.405Z,41.37
2023-02-11T23:46:42.852Z,41.87
2023-02-11T23:49:11.246Z,38.60
2023-02-11T23:51:39.538Z,42.33
2023-02-11T23:54:07.912Z,40.87
2023-02-11T23:56:37.596Z,41.13
2023-02-11T23:59:07.540Z,44.10
